»·PEaware :: SWA2313 KIFP-KLGB

SWA2313 :: KIFP-KLGB

FLIGHT INFORMATION

Flight Status: Arrived
Operator:
Southwest Airlines
More flights by this operator :: More flights under this callsign
Pilot: Walter P. (10403)
Aircraft: BOEING 737-300
(B733)
More flights by this aircraft type
Origin: KIFP Laughlin/Bullhead Intl
United States
Destination: KLGB Long Beach
United States
More flights between these airports :: More routes between these airports
Route: + EED DSNEE3
File this flight plan on PilotEdge
Remarks:
Altitude:
(Current/Filed)
24,000ft
Speed:
(Current/Filed)
440kts
Departed: 15-Jul-18 06:11 PM
Arrived: 15-Jul-18 07:08 PM
Distance/Time
Traveled:
195nm/0:57
Distance/Time
To Go:
Arrived

Flight Plot

Page will automatically refresh every two minutes.

Flight plan parsing failed; only flown route is shown


Map Options




Map Legend


Flown Route
Filed Route
Departure Airport
Arrival Airport
Navaid (VOR, NDB)
Fix

Horizontal Profiles

Position Reports

Time Latitude Longitude Heading Altitude Ground
Speed
15-Jul-18 17:32 35.164720 -114.556296 0 702ft 0kts
15-Jul-18 17:33 35.164720 -114.556296 84 702ft 0kts
15-Jul-18 17:34 35.164720 -114.556296 84 702ft 0kts
15-Jul-18 17:35 35.164720 -114.556296 84 702ft 0kts
15-Jul-18 17:36 35.164720 -114.556296 84 702ft 0kts
15-Jul-18 17:37 35.164720 -114.556296 84 702ft 0kts
15-Jul-18 17:38 35.164720 -114.556296 84 702ft 0kts
15-Jul-18 17:39 35.164720 -114.556296 84 702ft 0kts
15-Jul-18 17:40 35.164720 -114.556296 84 702ft 0kts
15-Jul-18 17:41 35.164720 -114.556296 84 702ft 0kts
15-Jul-18 17:42 35.164720 -114.556296 84 702ft 0kts
15-Jul-18 17:43 35.164720 -114.556296 84 702ft 0kts
15-Jul-18 17:44 35.164720 -114.556296 84 702ft 0kts
15-Jul-18 17:45 35.164720 -114.556296 84 702ft 0kts
15-Jul-18 17:46 35.164720 -114.556296 84 702ft 0kts
15-Jul-18 17:47 35.164720 -114.556296 84 702ft 0kts
15-Jul-18 17:48 35.164720 -114.556296 84 702ft 0kts
15-Jul-18 17:49 35.164720 -114.556296 84 702ft 0kts
15-Jul-18 17:50 35.164720 -114.556296 84 702ft 0kts
15-Jul-18 17:51 35.164720 -114.556296 84 702ft 0kts
15-Jul-18 17:52 35.164720 -114.556296 84 702ft 0kts
15-Jul-18 17:53 35.164720 -114.556296 84 702ft 0kts
15-Jul-18 17:54 35.164720 -114.556296 84 702ft 0kts
15-Jul-18 17:55 35.164720 -114.556296 84 702ft 0kts
15-Jul-18 17:56 35.164720 -114.556296 84 702ft 0kts
15-Jul-18 17:57 35.164720 -114.556296 84 702ft 0kts
15-Jul-18 17:58 35.164720 -114.556296 84 702ft 0kts
15-Jul-18 17:59 35.164720 -114.556296 84 702ft 0kts
15-Jul-18 18:00 35.164720 -114.556296 84 702ft 0kts
15-Jul-18 18:01 35.164685 -114.556812 85 702ft 0kts
15-Jul-18 18:02 35.164685 -114.556812 85 702ft 0kts
15-Jul-18 18:03 35.164685 -114.556812 85 702ft 0kts
15-Jul-18 18:04 35.164685 -114.556812 85 702ft 0kts
15-Jul-18 18:05 35.164685 -114.556812 85 702ft 0kts
15-Jul-18 18:06 35.164803 -114.556709 356 702ft 4kts
15-Jul-18 18:07 35.166019 -114.558940 337 702ft 4kts
15-Jul-18 18:08 35.166162 -114.559118 282 702ft 0kts
15-Jul-18 18:09 35.166162 -114.559118 282 702ft 0kts
15-Jul-18 18:10 35.166162 -114.559118 282 702ft 0kts
15-Jul-18 18:11 35.166191 -114.559558 266 702ft 7kts
15-Jul-18 18:12 35.150016 -114.558906 177 769ft 163kts
15-Jul-18 18:13 35.103042 -114.554396 176 3751ft 182kts
15-Jul-18 18:14 35.048024 -114.547510 174 6394ft 215kts
15-Jul-18 18:15 34.982253 -114.539130 174 7002ft 249kts
15-Jul-18 18:16 34.904135 -114.529672 174 9758ft 302kts
15-Jul-18 18:17 34.827505 -114.506230 160 11875ft 353kts
15-Jul-18 18:18 34.739757 -114.529686 226 14987ft 367kts
15-Jul-18 18:19 34.674873 -114.625708 232 17835ft 383kts
15-Jul-18 18:20 34.611305 -114.723019 232 20354ft 397kts
15-Jul-18 18:21 34.541375 -114.829173 232 22745ft 412kts
15-Jul-18 18:22 34.468979 -114.938704 232 23872ft 419kts
15-Jul-18 18:23 34.398677 -115.046760 233 23860ft 402kts
15-Jul-18 18:24 34.329820 -115.153233 233 23864ft 403kts
15-Jul-18 18:25 34.260708 -115.259787 233 23863ft 403kts
15-Jul-18 18:26 34.191226 -115.366602 233 24000ft 407kts
15-Jul-18 18:27 34.120570 -115.474886 233 24125ft 415kts
15-Jul-18 18:28 34.051751 -115.583735 247 24337ft 414kts
15-Jul-18 18:29 34.033472 -115.718527 262 23921ft 403kts
15-Jul-18 18:30 34.015130 -115.851842 262 23991ft 408kts
15-Jul-18 18:31 33.999624 -115.961939 262 23991ft 407kts
15-Jul-18 18:32 33.977717 -116.115373 262 23991ft 407kts
15-Jul-18 18:33 33.959806 -116.244595 263 23991ft 407kts
15-Jul-18 18:34 33.943288 -116.378074 263 23861ft 406kts
15-Jul-18 18:35 33.930533 -116.481468 263 22101ft 401kts
15-Jul-18 18:36 33.914428 -116.608637 263 19992ft 382kts
15-Jul-18 18:37 33.898460 -116.732445 262 17877ft 370kts
15-Jul-18 18:38 33.885055 -116.848447 263 16064ft 360kts
15-Jul-18 18:39 33.870465 -116.981808 262 13698ft 349kts
15-Jul-18 18:40 33.860442 -117.071769 262 12041ft 338kts
15-Jul-18 18:41 33.848598 -117.178380 262 10198ft 325kts
15-Jul-18 18:42 33.838493 -117.268708 262 9670ft 278kts
15-Jul-18 18:43 33.828441 -117.358040 262 8220ft 267kts
15-Jul-18 18:44 33.818633 -117.443981 259 8064ft 248kts
15-Jul-18 18:45 33.795958 -117.520177 250 7742ft 242kts
15-Jul-18 18:46 33.773279 -117.594294 250 7253ft 239kts
15-Jul-18 18:47 33.751317 -117.666978 249 7158ft 239kts
15-Jul-18 18:48 33.729473 -117.740746 250 6874ft 237kts
15-Jul-18 18:49 33.708854 -117.810245 249 6092ft 245kts
15-Jul-18 18:50 33.687424 -117.883529 256 4939ft 233kts
15-Jul-18 18:51 33.705813 -117.955720 281 3588ft 233kts
15-Jul-18 18:52 33.720808 -118.030261 281 2991ft 230kts
15-Jul-18 18:53 33.735519 -118.103176 281 3013ft 232kts
15-Jul-18 18:54 33.750232 -118.176267 281 2997ft 234kts
15-Jul-18 18:55 33.761944 -118.252559 279 3629ft 239kts
15-Jul-18 18:56 33.802701 -118.291462 14 3431ft 222kts
15-Jul-18 18:57 33.847647 -118.248529 55 2490ft 200kts
15-Jul-18 18:58 33.852195 -118.196752 116 1541ft 167kts
15-Jul-18 18:59 33.817256 -118.148678 134 3004ft 210kts
15-Jul-18 19:00 33.776391 -118.096977 134 2998ft 216kts
15-Jul-18 19:01 33.732048 -118.052990 183 3006ft 212kts
15-Jul-18 19:02 33.720924 -118.110907 292 3022ft 225kts
15-Jul-18 19:03 33.744032 -118.178796 289 3027ft 228kts
15-Jul-18 19:04 33.773638 -118.242007 333 3051ft 220kts
15-Jul-18 19:05 33.830668 -118.257253 10 2324ft 217kts
15-Jul-18 19:06 33.857523 -118.211228 107 1961ft 153kts
15-Jul-18 19:07 33.836225 -118.173785 136 675ft 123kts
15-Jul-18 19:08 33.815046 -118.148013 136 50ft 55kts
15-Jul-18 19:09 33.812243 -118.143234 61 50ft 0kts
15-Jul-18 19:10 33.812243 -118.143234 61 50ft 0kts
15-Jul-18 19:11 33.813975 -118.144852 316 50ft 21kts
15-Jul-18 19:12 33.818216 -118.146352 91 50ft 8kts

Navigation Log

Ident Type
Flight plan parsing failed, navigation log unavailable